sensor_id;sensor_type;location;lat;lon;timestamp;P1;durP1;ratioP1;P2;durP2;ratioP2
73599;SDS011;61877;48.246;9.220;2023-04-25T00:00:38;8.60;;;4.23;;
73599;SDS011;61877;48.246;9.220;2023-04-25T00:03:04;9.40;;;4.20;;
73599;SDS011;61877;48.246;9.220;2023-04-25T00:05:31;8.67;;;4.30;;
73599;SDS011;61877;48.246;9.220;2023-04-25T00:07:57;8.55;;;3.92;;
73599;SDS011;61877;48.246;9.220;2023-04-25T00:10:22;8.40;;;4.00;;
73599;SDS011;61877;48.246;9.220;2023-04-25T00:12:48;9.47;;;4.13;;
73599;SDS011;61877;48.246;9.220;2023-04-25T00:15:13;8.70;;;4.20;;
73599;SDS011;61877;48.246;9.220;2023-04-25T00:17:38;9.37;;;4.10;;
73599;SDS011;61877;48.246;9.220;2023-04-25T00:20:04;8.30;;;3.87;;
73599;SDS011;61877;48.246;9.220;2023-04-25T00:22:32;8.30;;;3.80;;
73599;SDS011;61877;48.246;9.220;2023-04-25T00:24:57;9.45;;;4.20;;
73599;SDS011;61877;48.246;9.220;2023-04-25T00:27:23;11.20;;;5.40;;
73599;SDS011;61877;48.246;9.220;2023-04-25T00:29:48;10.80;;;4.97;;
73599;SDS011;61877;48.246;9.220;2023-04-25T00:32:14;11.90;;;5.20;;
73599;SDS011;61877;48.246;9.220;2023-04-25T00:34:39;9.50;;;4.63;;
73599;SDS011;61877;48.246;9.220;2023-04-25T00:37:04;10.03;;;4.90;;
73599;SDS011;61877;48.246;9.220;2023-04-25T00:39:31;9.50;;;4.53;;
73599;SDS011;61877;48.246;9.220;2023-04-25T00:41:56;9.98;;;4.75;;
73599;SDS011;61877;48.246;9.220;2023-04-25T00:44:22;10.33;;;4.77;;
73599;SDS011;61877;48.246;9.220;2023-04-25T00:46:49;10.98;;;4.80;;
73599;SDS011;61877;48.246;9.220;2023-04-25T00:49:15;10.00;;;4.75;;
73599;SDS011;61877;48.246;9.220;2023-04-25T00:51:40;10.10;;;4.67;;
73599;SDS011;61877;48.246;9.220;2023-04-25T00:54:06;9.00;;;4.72;;
73599;SDS011;61877;48.246;9.220;2023-04-25T00:56:33;10.40;;;4.67;;
73599;SDS011;61877;48.246;9.220;2023-04-25T00:58:58;10.05;;;4.78;;
73599;SDS011;61877;48.246;9.220;2023-04-25T01:01:24;9.80;;;4.80;;
73599;SDS011;61877;48.246;9.220;2023-04-25T01:03:49;10.38;;;4.80;;
73599;SDS011;61877;48.246;9.220;2023-04-25T01:06:16;10.30;;;4.83;;
73599;SDS011;61877;48.246;9.220;2023-04-25T01:08:41;8.63;;;4.40;;
73599;SDS011;61877;48.246;9.220;2023-04-25T01:11:07;8.90;;;4.33;;
73599;SDS011;61877;48.246;9.220;2023-04-25T01:13:34;8.60;;;4.27;;
73599;SDS011;61877;48.246;9.220;2023-04-25T01:16:03;9.73;;;4.30;;
73599;SDS011;61877;48.246;9.220;2023-04-25T01:18:29;9.35;;;4.50;;
73599;SDS011;61877;48.246;9.220;2023-04-25T01:20:54;9.37;;;3.93;;
73599;SDS011;61877;48.246;9.220;2023-04-25T01:23:21;10.07;;;4.57;;
73599;SDS011;61877;48.246;9.220;2023-04-25T01:25:47;9.00;;;4.72;;
73599;SDS011;61877;48.246;9.220;2023-04-25T01:28:14;9.35;;;4.57;;
73599;SDS011;61877;48.246;9.220;2023-04-25T01:30:39;10.40;;;4.50;;
73599;SDS011;61877;48.246;9.220;2023-04-25T01:33:05;8.67;;;4.40;;
73599;SDS011;61877;48.246;9.220;2023-04-25T01:35:34;9.50;;;4.07;;
73599;SDS011;61877;48.246;9.220;2023-04-25T01:37:59;8.77;;;4.10;;
73599;SDS011;61877;48.246;9.220;2023-04-25T01:40:26;9.03;;;4.60;;
73599;SDS011;61877;48.246;9.220;2023-04-25T01:42:52;8.52;;;4.10;;
73599;SDS011;61877;48.246;9.220;2023-04-25T01:45:17;10.03;;;4.23;;
73599;SDS011;61877;48.246;9.220;2023-04-25T01:47:43;8.63;;;3.97;;
73599;SDS011;61877;48.246;9.220;2023-04-25T01:50:09;9.23;;;3.73;;
73599;SDS011;61877;48.246;9.220;2023-04-25T01:52:35;9.40;;;4.07;;
73599;SDS011;61877;48.246;9.220;2023-04-25T01:55:00;8.70;;;4.03;;
73599;SDS011;61877;48.246;9.220;2023-04-25T01:57:28;9.15;;;4.47;;
73599;SDS011;61877;48.246;9.220;2023-04-25T01:59:54;8.88;;;4.40;;
73599;SDS011;61877;48.246;9.220;2023-04-25T02:02:24;10.65;;;4.30;;
73599;SDS011;61877;48.246;9.220;2023-04-25T02:04:49;8.60;;;4.10;;
73599;SDS011;61877;48.246;9.220;2023-04-25T02:07:14;9.13;;;4.33;;
73599;SDS011;61877;48.246;9.220;2023-04-25T02:09:40;9.70;;;4.53;;
73599;SDS011;61877;48.246;9.220;2023-04-25T02:12:05;9.77;;;3.90;;
73599;SDS011;61877;48.246;9.220;2023-04-25T02:14:34;8.60;;;3.60;;
73599;SDS011;61877;48.246;9.220;2023-04-25T02:16:59;11.38;;;4.72;;
73599;SDS011;61877;48.246;9.220;2023-04-25T02:19:24;9.60;;;4.90;;
73599;SDS011;61877;48.246;9.220;2023-04-25T02:21:50;10.43;;;4.23;;
73599;SDS011;61877;48.246;9.220;2023-04-25T02:24:15;9.55;;;4.55;;
73599;SDS011;61877;48.246;9.220;2023-04-25T02:26:40;9.00;;;4.00;;
73599;SDS011;61877;48.246;9.220;2023-04-25T02:29:06;10.07;;;4.37;;
73599;SDS011;61877;48.246;9.220;2023-04-25T02:31:32;11.97;;;4.77;;
73599;SDS011;61877;48.246;9.220;2023-04-25T02:33:58;9.88;;;4.40;;
73599;SDS011;61877;48.246;9.220;2023-04-25T02:36:23;10.27;;;4.97;;
73599;SDS011;61877;48.246;9.220;2023-04-25T02:38:49;10.87;;;4.93;;
73599;SDS011;61877;48.246;9.220;2023-04-25T02:41:14;10.40;;;4.80;;
73599;SDS011;61877;48.246;9.220;2023-04-25T02:43:40;8.73;;;4.30;;
73599;SDS011;61877;48.246;9.220;2023-04-25T02:46:05;10.00;;;4.63;;
73599;SDS011;61877;48.246;9.220;2023-04-25T02:48:33;10.68;;;4.57;;
73599;SDS011;61877;48.246;9.220;2023-04-25T02:50:59;10.43;;;4.70;;
73599;SDS011;61877;48.246;9.220;2023-04-25T02:53:24;8.80;;;4.40;;
73599;SDS011;61877;48.246;9.220;2023-04-25T02:55:50;7.97;;;3.87;;
73599;SDS011;61877;48.246;9.220;2023-04-25T02:58:15;9.27;;;4.20;;
73599;SDS011;61877;48.246;9.220;2023-04-25T03:00:40;9.70;;;4.37;;
73599;SDS011;61877;48.246;9.220;2023-04-25T03:03:06;8.70;;;4.30;;
73599;SDS011;61877;48.246;9.220;2023-04-25T03:05:32;8.93;;;3.90;;
73599;SDS011;61877;48.246;9.220;2023-04-25T03:07:58;9.90;;;4.10;;
73599;SDS011;61877;48.246;9.220;2023-04-25T03:10:23;7.77;;;3.80;;
73599;SDS011;61877;48.246;9.220;2023-04-25T03:12:49;8.73;;;3.93;;
73599;SDS011;61877;48.246;9.220;2023-04-25T03:15:14;8.77;;;4.03;;
73599;SDS011;61877;48.246;9.220;2023-04-25T03:17:39;9.00;;;4.53;;
73599;SDS011;61877;48.246;9.220;2023-04-25T03:20:05;9.70;;;4.70;;
73599;SDS011;61877;48.246;9.220;2023-04-25T03:22:34;9.52;;;4.30;;
73599;SDS011;61877;48.246;9.220;2023-04-25T03:25:00;10.90;;;4.57;;
73599;SDS011;61877;48.246;9.220;2023-04-25T03:27:25;10.20;;;4.47;;
73599;SDS011;61877;48.246;9.220;2023-04-25T03:29:50;9.70;;;4.30;;
73599;SDS011;61877;48.246;9.220;2023-04-25T03:32:16;9.67;;;4.17;;
73599;SDS011;61877;48.246;9.220;2023-04-25T03:34:41;8.60;;;4.40;;
73599;SDS011;61877;48.246;9.220;2023-04-25T03:37:06;10.05;;;4.35;;
73599;SDS011;61877;48.246;9.220;2023-04-25T03:39:33;9.63;;;4.47;;
73599;SDS011;61877;48.246;9.220;2023-04-25T03:41:58;12.10;;;4.57;;
73599;SDS011;61877;48.246;9.220;2023-04-25T03:44:24;9.23;;;4.30;;
73599;SDS011;61877;48.246;9.220;2023-04-25T03:46:49;8.67;;;4.47;;
73599;SDS011;61877;48.246;9.220;2023-04-25T03:49:15;8.90;;;4.03;;
73599;SDS011;61877;48.246;9.220;2023-04-25T03:51:40;9.63;;;4.40;;
73599;SDS011;61877;48.246;9.220;2023-04-25T03:54:06;9.27;;;4.57;;
73599;SDS011;61877;48.246;9.220;2023-04-25T03:56:32;9.27;;;4.50;;
73599;SDS011;61877;48.246;9.220;2023-04-25T03:59:00;9.30;;;4.30;;
73599;SDS011;61877;48.246;9.220;2023-04-25T04:01:33;10.45;;;5.03;;
73599;SDS011;61877;48.246;9.220;2023-04-25T04:04:08;8.48;;;4.30;;
73599;SDS011;61877;48.246;9.220;2023-04-25T04:06:33;8.97;;;4.10;;
73599;SDS011;61877;48.246;9.220;2023-04-25T04:08:59;10.80;;;4.40;;
73599;SDS011;61877;48.246;9.220;2023-04-25T04:11:24;9.55;;;4.50;;
73599;SDS011;61877;48.246;9.220;2023-04-25T04:13:51;9.37;;;4.30;;
73599;SDS011;61877;48.246;9.220;2023-04-25T04:16:16;10.60;;;4.70;;
73599;SDS011;61877;48.246;9.220;2023-04-25T04:18:42;9.20;;;4.30;;
73599;SDS011;61877;48.246;9.220;2023-04-25T04:21:07;9.97;;;4.77;;
73599;SDS011;61877;48.246;9.220;2023-04-25T04:23:33;8.40;;;4.20;;
73599;SDS011;61877;48.246;9.220;2023-04-25T04:25:58;9.30;;;4.03;;
73599;SDS011;61877;48.246;9.220;2023-04-25T04:28:24;8.63;;;4.00;;
73599;SDS011;61877;48.246;9.220;2023-04-25T04:30:50;11.20;;;4.40;;
73599;SDS011;61877;48.246;9.220;2023-04-25T04:33:16;9.50;;;4.50;;
73599;SDS011;61877;48.246;9.220;2023-04-25T04:35:41;12.03;;;4.37;;
73599;SDS011;61877;48.246;9.220;2023-04-25T04:38:07;8.27;;;4.20;;
73599;SDS011;61877;48.246;9.220;2023-04-25T04:40:32;10.10;;;4.80;;
73599;SDS011;61877;48.246;9.220;2023-04-25T04:42:57;13.70;;;6.50;;
73599;SDS011;61877;48.246;9.220;2023-04-25T04:45:23;10.07;;;4.80;;
73599;SDS011;61877;48.246;9.220;2023-04-25T04:47:50;10.70;;;4.95;;
73599;SDS011;61877;48.246;9.220;2023-04-25T04:50:15;11.73;;;5.07;;
73599;SDS011;61877;48.246;9.220;2023-04-25T04:52:41;9.63;;;4.70;;
73599;SDS011;61877;48.246;9.220;2023-04-25T04:55:07;11.70;;;5.13;;
73599;SDS011;61877;48.246;9.220;2023-04-25T04:57:34;9.38;;;4.50;;
73599;SDS011;61877;48.246;9.220;2023-04-25T05:00:00;9.05;;;4.53;;
73599;SDS011;61877;48.246;9.220;2023-04-25T05:02:25;9.55;;;4.55;;
73599;SDS011;61877;48.246;9.220;2023-04-25T05:04:52;9.63;;;4.60;;
73599;SDS011;61877;48.246;9.220;2023-04-25T05:07:18;8.57;;;4.25;;
73599;SDS011;61877;48.246;9.220;2023-04-25T05:09:43;8.60;;;4.47;;
73599;SDS011;61877;48.246;9.220;2023-04-25T05:12:09;10.27;;;4.47;;
73599;SDS011;61877;48.246;9.220;2023-04-25T05:14:34;8.77;;;4.23;;
73599;SDS011;61877;48.246;9.220;2023-04-25T05:17:00;10.90;;;4.30;;
73599;SDS011;61877;48.246;9.220;2023-04-25T05:19:25;9.27;;;4.07;;
73599;SDS011;61877;48.246;9.220;2023-04-25T05:21:52;8.90;;;4.17;;
73599;SDS011;61877;48.246;9.220;2023-04-25T05:24:17;9.05;;;4.25;;
73599;SDS011;61877;48.246;9.220;2023-04-25T05:26:46;9.43;;;4.60;;
73599;SDS011;61877;48.246;9.220;2023-04-25T05:29:11;10.52;;;4.60;;
73599;SDS011;61877;48.246;9.220;2023-04-25T05:31:37;8.13;;;4.10;;
73599;SDS011;61877;48.246;9.220;2023-04-25T05:34:03;9.35;;;4.07;;
73599;SDS011;61877;48.246;9.220;2023-04-25T05:36:28;9.10;;;4.07;;
73599;SDS011;61877;48.246;9.220;2023-04-25T05:38:59;8.73;;;4.33;;
73599;SDS011;61877;48.246;9.220;2023-04-25T05:41:24;8.70;;;4.13;;
73599;SDS011;61877;48.246;9.220;2023-04-25T05:43:49;10.23;;;4.57;;
73599;SDS011;61877;48.246;9.220;2023-04-25T05:46:15;9.07;;;3.83;;
73599;SDS011;61877;48.246;9.220;2023-04-25T05:48:40;9.57;;;4.30;;
73599;SDS011;61877;48.246;9.220;2023-04-25T05:51:05;9.48;;;4.32;;
73599;SDS011;61877;48.246;9.220;2023-04-25T05:53:31;9.17;;;4.10;;
73599;SDS011;61877;48.246;9.220;2023-04-25T05:55:58;8.97;;;4.03;;
73599;SDS011;61877;48.246;9.220;2023-04-25T05:58:23;10.13;;;4.38;;
73599;SDS011;61877;48.246;9.220;2023-04-25T06:00:48;8.43;;;3.87;;
73599;SDS011;61877;48.246;9.220;2023-04-25T06:03:14;9.53;;;4.53;;
73599;SDS011;61877;48.246;9.220;2023-04-25T06:05:39;9.55;;;4.22;;
73599;SDS011;61877;48.246;9.220;2023-04-25T06:08:04;10.50;;;4.60;;
73599;SDS011;61877;48.246;9.220;2023-04-25T06:10:30;8.90;;;4.17;;
73599;SDS011;61877;48.246;9.220;2023-04-25T06:12:57;9.87;;;4.30;;
73599;SDS011;61877;48.246;9.220;2023-04-25T06:15:22;8.20;;;3.80;;
73599;SDS011;61877;48.246;9.220;2023-04-25T06:17:47;8.80;;;3.87;;
73599;SDS011;61877;48.246;9.220;2023-04-25T06:20:13;8.67;;;3.97;;
73599;SDS011;61877;48.246;9.220;2023-04-25T06:22:38;8.17;;;4.00;;
73599;SDS011;61877;48.246;9.220;2023-04-25T06:25:04;9.57;;;3.88;;
73599;SDS011;61877;48.246;9.220;2023-04-25T06:27:29;9.70;;;4.50;;
73599;SDS011;61877;48.246;9.220;2023-04-25T06:29:56;12.77;;;4.57;;
73599;SDS011;61877;48.246;9.220;2023-04-25T06:32:21;9.53;;;4.10;;
73599;SDS011;61877;48.246;9.220;2023-04-25T06:34:47;8.57;;;4.10;;
73599;SDS011;61877;48.246;9.220;2023-04-25T06:37:12;8.73;;;4.13;;
73599;SDS011;61877;48.246;9.220;2023-04-25T06:39:37;10.17;;;4.40;;
73599;SDS011;61877;48.246;9.220;2023-04-25T06:42:03;9.37;;;4.40;;
73599;SDS011;61877;48.246;9.220;2023-04-25T06:44:30;9.43;;;4.50;;
73599;SDS011;61877;48.246;9.220;2023-04-25T06:46:57;8.83;;;4.07;;
73599;SDS011;61877;48.246;9.220;2023-04-25T06:49:22;8.93;;;4.03;;
73599;SDS011;61877;48.246;9.220;2023-04-25T06:51:47;9.97;;;4.20;;
73599;SDS011;61877;48.246;9.220;2023-04-25T06:54:13;8.83;;;4.37;;
73599;SDS011;61877;48.246;9.220;2023-04-25T06:56:38;9.65;;;3.80;;
73599;SDS011;61877;48.246;9.220;2023-04-25T06:59:05;8.40;;;3.93;;
73599;SDS011;61877;48.246;9.220;2023-04-25T07:01:31;8.70;;;3.97;;
73599;SDS011;61877;48.246;9.220;2023-04-25T07:03:57;8.83;;;3.80;;
73599;SDS011;61877;48.246;9.220;2023-04-25T07:06:23;9.05;;;4.03;;
73599;SDS011;61877;48.246;9.220;2023-04-25T07:08:48;9.20;;;4.10;;
73599;SDS011;61877;48.246;9.220;2023-04-25T07:11:13;8.27;;;4.17;;
73599;SDS011;61877;48.246;9.220;2023-04-25T07:13:39;8.70;;;4.10;;
73599;SDS011;61877;48.246;9.220;2023-04-25T07:16:07;8.80;;;4.23;;
73599;SDS011;61877;48.246;9.220;2023-04-25T07:18:32;9.55;;;4.00;;
73599;SDS011;61877;48.246;9.220;2023-04-25T07:20:59;9.02;;;4.18;;
73599;SDS011;61877;48.246;9.220;2023-04-25T07:23:24;9.10;;;3.90;;
73599;SDS011;61877;48.246;9.220;2023-04-25T07:25:50;7.70;;;3.80;;
73599;SDS011;61877;48.246;9.220;2023-04-25T07:28:15;9.50;;;4.05;;
73599;SDS011;61877;48.246;9.220;2023-04-25T07:30:40;8.47;;;4.00;;
73599;SDS011;61877;48.246;9.220;2023-04-25T07:33:06;8.67;;;4.43;;
73599;SDS011;61877;48.246;9.220;2023-04-25T07:35:31;8.70;;;3.97;;
73599;SDS011;61877;48.246;9.220;2023-04-25T07:37:58;8.50;;;4.13;;
73599;SDS011;61877;48.246;9.220;2023-04-25T07:40:23;7.93;;;3.70;;
73599;SDS011;61877;48.246;9.220;2023-04-25T07:42:49;7.70;;;3.90;;
73599;SDS011;61877;48.246;9.220;2023-04-25T07:45:14;8.83;;;4.10;;
73599;SDS011;61877;48.246;9.220;2023-04-25T07:47:39;9.93;;;4.30;;
73599;SDS011;61877;48.246;9.220;2023-04-25T07:50:05;8.13;;;3.53;;
73599;SDS011;61877;48.246;9.220;2023-04-25T07:52:31;9.05;;;3.92;;
73599;SDS011;61877;48.246;9.220;2023-04-25T07:54:58;9.67;;;4.43;;
73599;SDS011;61877;48.246;9.220;2023-04-25T07:57:24;9.00;;;4.18;;
73599;SDS011;61877;48.246;9.220;2023-04-25T07:59:49;10.80;;;3.90;;
73599;SDS011;61877;48.246;9.220;2023-04-25T08:02:14;9.07;;;4.00;;
73599;SDS011;61877;48.246;9.220;2023-04-25T08:04:40;9.38;;;4.85;;
73599;SDS011;61877;48.246;9.220;2023-04-25T08:07:05;9.90;;;4.77;;
73599;SDS011;61877;48.246;9.220;2023-04-25T08:09:31;9.37;;;4.10;;
73599;SDS011;61877;48.246;9.220;2023-04-25T08:11:57;9.30;;;4.00;;
73599;SDS011;61877;48.246;9.220;2023-04-25T08:14:23;9.02;;;3.85;;
73599;SDS011;61877;48.246;9.220;2023-04-25T08:16:48;10.50;;;4.30;;
73599;SDS011;61877;48.246;9.220;2023-04-25T08:19:13;9.30;;;4.22;;
73599;SDS011;61877;48.246;9.220;2023-04-25T08:21:39;8.60;;;4.20;;
73599;SDS011;61877;48.246;9.220;2023-04-25T08:24:05;8.90;;;4.10;;
73599;SDS011;61877;48.246;9.220;2023-04-25T08:26:30;9.60;;;4.05;;
73599;SDS011;61877;48.246;9.220;2023-04-25T08:28:57;8.50;;;4.10;;
73599;SDS011;61877;48.246;9.220;2023-04-25T08:31:22;9.38;;;4.03;;
73599;SDS011;61877;48.246;9.220;2023-04-25T08:33:48;8.90;;;3.70;;
73599;SDS011;61877;48.246;9.220;2023-04-25T08:36:13;9.53;;;3.90;;
73599;SDS011;61877;48.246;9.220;2023-04-25T08:38:38;7.93;;;3.43;;
73599;SDS011;61877;48.246;9.220;2023-04-25T08:41:04;8.23;;;3.85;;
73599;SDS011;61877;48.246;9.220;2023-04-25T08:43:31;8.40;;;3.90;;
73599;SDS011;61877;48.246;9.220;2023-04-25T08:45:59;8.93;;;3.40;;
73599;SDS011;61877;48.246;9.220;2023-04-25T08:48:26;7.78;;;3.40;;
73599;SDS011;61877;48.246;9.220;2023-04-25T08:50:53;8.13;;;3.38;;
73599;SDS011;61877;48.246;9.220;2023-04-25T08:53:22;8.40;;;3.40;;
73599;SDS011;61877;48.246;9.220;2023-04-25T08:55:50;7.53;;;3.17;;
73599;SDS011;61877;48.246;9.220;2023-04-25T08:58:17;7.78;;;3.30;;
73599;SDS011;61877;48.246;9.220;2023-04-25T09:00:43;7.77;;;3.50;;
73599;SDS011;61877;48.246;9.220;2023-04-25T09:03:11;9.53;;;3.40;;
73599;SDS011;61877;48.246;9.220;2023-04-25T09:05:40;7.30;;;3.00;;
73599;SDS011;61877;48.246;9.220;2023-04-25T09:08:06;7.80;;;3.30;;
73599;SDS011;61877;48.246;9.220;2023-04-25T09:10:32;6.97;;;3.00;;
73599;SDS011;61877;48.246;9.220;2023-04-25T09:13:05;8.30;;;3.47;;
73599;SDS011;61877;48.246;9.220;2023-04-25T09:15:34;8.32;;;3.75;;
73599;SDS011;61877;48.246;9.220;2023-04-25T09:18:13;8.45;;;3.25;;
73599;SDS011;61877;48.246;9.220;2023-04-25T09:20:47;7.93;;;3.20;;
73599;SDS011;61877;48.246;9.220;2023-04-25T09:23:13;7.20;;;2.80;;
73599;SDS011;61877;48.246;9.220;2023-04-25T09:25:39;5.80;;;2.40;;
73599;SDS011;61877;48.246;9.220;2023-04-25T09:28:05;5.18;;;1.70;;
73599;SDS011;61877;48.246;9.220;2023-04-25T09:30:31;7.17;;;2.90;;
73599;SDS011;61877;48.246;9.220;2023-04-25T09:33:03;6.70;;;2.58;;
73599;SDS011;61877;48.246;9.220;2023-04-25T09:35:32;7.10;;;2.90;;
73599;SDS011;61877;48.246;9.220;2023-04-25T09:38:00;11.30;;;5.30;;
73599;SDS011;61877;48.246;9.220;2023-04-25T09:40:26;8.20;;;3.50;;
73599;SDS011;61877;48.246;9.220;2023-04-25T09:42:51;7.60;;;3.63;;
73599;SDS011;61877;48.246;9.220;2023-04-25T09:45:16;8.20;;;4.10;;
73599;SDS011;61877;48.246;9.220;2023-04-25T09:47:42;8.90;;;3.92;;
73599;SDS011;61877;48.246;9.220;2023-04-25T09:50:13;7.27;;;3.43;;
73599;SDS011;61877;48.246;9.220;2023-04-25T09:52:40;10.13;;;4.68;;
73599;SDS011;61877;48.246;9.220;2023-04-25T09:55:06;5.33;;;2.10;;
73599;SDS011;61877;48.246;9.220;2023-04-25T09:57:32;5.80;;;2.35;;
73599;SDS011;61877;48.246;9.220;2023-04-25T09:59:58;7.03;;;2.63;;
73599;SDS011;61877;48.246;9.220;2023-04-25T10:02:26;5.80;;;2.10;;
73599;SDS011;61877;48.246;9.220;2023-04-25T10:04:52;8.07;;;3.40;;
73599;SDS011;61877;48.246;9.220;2023-04-25T10:07:19;5.15;;;2.05;;
73599;SDS011;61877;48.246;9.220;2023-04-25T10:09:47;5.15;;;2.05;;
73599;SDS011;61877;48.246;9.220;2023-04-25T10:12:13;5.40;;;2.30;;
73599;SDS011;61877;48.246;9.220;2023-04-25T10:14:39;6.50;;;2.10;;
73599;SDS011;61877;48.246;9.220;2023-04-25T10:17:05;5.85;;;2.50;;
73599;SDS011;61877;48.246;9.220;2023-04-25T10:19:30;7.00;;;2.97;;
73599;SDS011;61877;48.246;9.220;2023-04-25T10:21:58;5.20;;;2.30;;
73599;SDS011;61877;48.246;9.220;2023-04-25T10:24:30;5.57;;;2.88;;
73599;SDS011;61877;48.246;9.220;2023-04-25T10:26:57;5.30;;;2.10;;
73599;SDS011;61877;48.246;9.220;2023-04-25T10:29:24;4.95;;;2.00;;
73599;SDS011;61877;48.246;9.220;2023-04-25T10:31:50;4.93;;;1.90;;
73599;SDS011;61877;48.246;9.220;2023-04-25T10:34:16;5.40;;;2.37;;
73599;SDS011;61877;48.246;9.220;2023-04-25T10:36:41;6.20;;;2.30;;
73599;SDS011;61877;48.246;9.220;2023-04-25T10:39:07;7.53;;;3.00;;
73599;SDS011;61877;48.246;9.220;2023-04-25T10:41:33;5.97;;;2.33;;
73599;SDS011;61877;48.246;9.220;2023-04-25T10:44:12;5.65;;;2.25;;
73599;SDS011;61877;48.246;9.220;2023-04-25T10:46:38;8.50;;;3.40;;
73599;SDS011;61877;48.246;9.220;2023-04-25T10:49:04;7.50;;;2.90;;
73599;SDS011;61877;48.246;9.220;2023-04-25T10:51:30;7.40;;;3.20;;
73599;SDS011;61877;48.246;9.220;2023-04-25T10:53:57;6.75;;;2.47;;
73599;SDS011;61877;48.246;9.220;2023-04-25T10:56:27;7.90;;;3.33;;
73599;SDS011;61877;48.246;9.220;2023-04-25T10:59:02;6.10;;;2.60;;
73599;SDS011;61877;48.246;9.220;2023-04-25T11:01:35;8.13;;;3.55;;
73599;SDS011;61877;48.246;9.220;2023-04-25T11:04:02;7.13;;;3.28;;
73599;SDS011;61877;48.246;9.220;2023-04-25T11:06:29;6.00;;;2.35;;
73599;SDS011;61877;48.246;9.220;2023-04-25T11:09:02;5.10;;;2.07;;
73599;SDS011;61877;48.246;9.220;2023-04-25T11:11:36;6.40;;;2.40;;
73599;SDS011;61877;48.246;9.220;2023-04-25T11:14:04;5.82;;;2.20;;
73599;SDS011;61877;48.246;9.220;2023-04-25T11:16:31;6.82;;;2.70;;
73599;SDS011;61877;48.246;9.220;2023-04-25T11:18:57;6.80;;;3.20;;
73599;SDS011;61877;48.246;9.220;2023-04-25T11:21:24;5.20;;;1.73;;
73599;SDS011;61877;48.246;9.220;2023-04-25T11:23:50;5.07;;;1.83;;
73599;SDS011;61877;48.246;9.220;2023-04-25T11:26:16;6.45;;;2.80;;
73599;SDS011;61877;48.246;9.220;2023-04-25T11:28:44;5.65;;;2.10;;
73599;SDS011;61877;48.246;9.220;2023-04-25T11:31:10;5.50;;;2.20;;
73599;SDS011;61877;48.246;9.220;2023-04-25T11:33:37;5.47;;;2.10;;
73599;SDS011;61877;48.246;9.220;2023-04-25T11:36:02;5.10;;;1.90;;
73599;SDS011;61877;48.246;9.220;2023-04-25T11:38:28;5.18;;;1.80;;
73599;SDS011;61877;48.246;9.220;2023-04-25T11:40:57;5.00;;;1.80;;
73599;SDS011;61877;48.246;9.220;2023-04-25T11:43:22;5.50;;;1.63;;
73599;SDS011;61877;48.246;9.220;2023-04-25T11:45:48;4.90;;;1.80;;
73599;SDS011;61877;48.246;9.220;2023-04-25T11:48:14;4.93;;;1.43;;
73599;SDS011;61877;48.246;9.220;2023-04-25T11:50:41;4.80;;;1.70;;
73599;SDS011;61877;48.246;9.220;2023-04-25T11:53:06;6.97;;;2.00;;
73599;SDS011;61877;48.246;9.220;2023-04-25T11:55:32;5.10;;;1.77;;
73599;SDS011;61877;48.246;9.220;2023-04-25T11:57:59;4.97;;;1.80;;
73599;SDS011;61877;48.246;9.220;2023-04-25T12:00:25;8.48;;;3.42;;
73599;SDS011;61877;48.246;9.220;2023-04-25T12:02:51;4.80;;;1.70;;
73599;SDS011;61877;48.246;9.220;2023-04-25T12:05:18;4.75;;;1.50;;
73599;SDS011;61877;48.246;9.220;2023-04-25T13:39:10;4.82;;;1.38;;
73599;SDS011;61877;48.246;9.220;2023-04-25T13:41:36;4.93;;;1.80;;
73599;SDS011;61877;48.246;9.220;2023-04-25T13:44:02;4.63;;;1.40;;
73599;SDS011;61877;48.246;9.220;2023-04-25T13:46:28;4.80;;;1.40;;
73599;SDS011;61877;48.246;9.220;2023-04-25T13:48:54;4.90;;;1.60;;
73599;SDS011;61877;48.246;9.220;2023-04-25T13:51:20;6.03;;;2.73;;
73599;SDS011;61877;48.246;9.220;2023-04-25T13:53:46;5.57;;;1.88;;
73599;SDS011;61877;48.246;9.220;2023-04-25T13:58:57;6.03;;;2.23;;
73599;SDS011;61877;48.246;9.220;2023-04-25T14:01:23;7.43;;;3.38;;
73599;SDS011;61877;48.246;9.220;2023-04-25T14:03:48;5.53;;;2.50;;
73599;SDS011;61877;48.246;9.220;2023-04-25T14:06:14;5.30;;;1.90;;
73599;SDS011;61877;48.246;9.220;2023-04-25T14:08:39;5.60;;;2.20;;
73599;SDS011;61877;48.246;9.220;2023-04-25T14:11:05;5.83;;;2.27;;
73599;SDS011;61877;48.246;9.220;2023-04-25T14:13:32;6.17;;;2.50;;
73599;SDS011;61877;48.246;9.220;2023-04-25T14:15:58;9.10;;;4.40;;
73599;SDS011;61877;48.246;9.220;2023-04-25T14:18:24;6.45;;;2.67;;
73599;SDS011;61877;48.246;9.220;2023-04-25T14:20:50;6.77;;;2.30;;
73599;SDS011;61877;48.246;9.220;2023-04-25T14:23:15;7.97;;;3.05;;
73599;SDS011;61877;48.246;9.220;2023-04-25T14:25:41;6.77;;;2.83;;
73599;SDS011;61877;48.246;9.220;2023-04-25T14:28:06;5.73;;;2.30;;
73599;SDS011;61877;48.246;9.220;2023-04-25T14:30:34;5.97;;;2.50;;
73599;SDS011;61877;48.246;9.220;2023-04-25T14:32:59;5.50;;;2.33;;
73599;SDS011;61877;48.246;9.220;2023-04-25T14:35:25;6.17;;;2.40;;
73599;SDS011;61877;48.246;9.220;2023-04-25T14:37:51;7.10;;;3.13;;
73599;SDS011;61877;48.246;9.220;2023-04-25T14:40:19;7.20;;;2.78;;
73599;SDS011;61877;48.246;9.220;2023-04-25T14:42:45;6.00;;;2.30;;
73599;SDS011;61877;48.246;9.220;2023-04-25T14:45:11;7.68;;;3.45;;
73599;SDS011;61877;48.246;9.220;2023-04-25T14:47:39;8.27;;;3.53;;
73599;SDS011;61877;48.246;9.220;2023-04-25T14:50:05;7.73;;;3.33;;
73599;SDS011;61877;48.246;9.220;2023-04-25T14:54:57;5.60;;;2.20;;
73599;SDS011;61877;48.246;9.220;2023-04-25T14:57:22;5.50;;;2.10;;
73599;SDS011;61877;48.246;9.220;2023-04-25T14:59:48;5.70;;;2.15;;
73599;SDS011;61877;48.246;9.220;2023-04-25T15:02:14;6.00;;;2.43;;
73599;SDS011;61877;48.246;9.220;2023-04-25T15:04:41;5.80;;;2.30;;
73599;SDS011;61877;48.246;9.220;2023-04-25T15:07:06;5.33;;;2.10;;
73599;SDS011;61877;48.246;9.220;2023-04-25T15:09:32;5.28;;;2.08;;
73599;SDS011;61877;48.246;9.220;2023-04-25T15:11:58;5.67;;;2.30;;
73599;SDS011;61877;48.246;9.220;2023-04-25T15:14:23;5.60;;;2.13;;
73599;SDS011;61877;48.246;9.220;2023-04-25T15:16:49;7.10;;;2.97;;
73599;SDS011;61877;48.246;9.220;2023-04-25T15:19:14;7.00;;;2.60;;
73599;SDS011;61877;48.246;9.220;2023-04-25T15:21:42;6.13;;;2.50;;
73599;SDS011;61877;48.246;9.220;2023-04-25T15:24:07;5.95;;;2.50;;
73599;SDS011;61877;48.246;9.220;2023-04-25T15:26:33;6.00;;;2.50;;
73599;SDS011;61877;48.246;9.220;2023-04-25T15:28:58;6.47;;;2.40;;
73599;SDS011;61877;48.246;9.220;2023-04-25T15:31:24;5.70;;;2.30;;
73599;SDS011;61877;48.246;9.220;2023-04-25T15:33:49;6.77;;;3.20;;
73599;SDS011;61877;48.246;9.220;2023-04-25T15:36:15;6.40;;;3.17;;
73599;SDS011;61877;48.246;9.220;2023-04-25T15:38:42;9.30;;;5.53;;
73599;SDS011;61877;48.246;9.220;2023-04-25T15:41:08;6.10;;;2.42;;
73599;SDS011;61877;48.246;9.220;2023-04-25T15:43:33;7.13;;;3.33;;
73599;SDS011;61877;48.246;9.220;2023-04-25T15:45:59;7.10;;;3.30;;
73599;SDS011;61877;48.246;9.220;2023-04-25T15:48:25;8.93;;;3.40;;
73599;SDS011;61877;48.246;9.220;2023-04-25T15:50:50;6.95;;;3.05;;
73599;SDS011;61877;48.246;9.220;2023-04-25T15:53:16;8.20;;;3.57;;
73599;SDS011;61877;48.246;9.220;2023-04-25T15:55:44;7.35;;;3.60;;
73599;SDS011;61877;48.246;9.220;2023-04-25T15:58:09;6.70;;;3.10;;
73599;SDS011;61877;48.246;9.220;2023-04-25T16:00:35;6.93;;;3.10;;
73599;SDS011;61877;48.246;9.220;2023-04-25T16:03:01;6.60;;;2.95;;
73599;SDS011;61877;48.246;9.220;2023-04-25T16:05:30;6.47;;;2.83;;
73599;SDS011;61877;48.246;9.220;2023-04-25T16:07:55;11.00;;;5.38;;
73599;SDS011;61877;48.246;9.220;2023-04-25T16:10:21;7.40;;;3.30;;
73599;SDS011;61877;48.246;9.220;2023-04-25T16:12:51;7.70;;;3.35;;
73599;SDS011;61877;48.246;9.220;2023-04-25T16:15:17;7.38;;;3.40;;